Bei Facebook empfehlenBei Twitter postenGoogle plusPinterest

Das Wetter im Erzgebirge am 02.07.2017

Wetter und Klima am 02.07.2017 Holzhau im Erzgebirge (630m ü.NN)
Letzte gemessene Temperatur und Uhrzeit der Messung23:45:00 Uhr12.10 °C
Temperatur (Maximum / Höchstwert) und Uhrzeit der Messung13:45:00 Uhr19.60 °C
Temperatur (Minimum / Tiefstwert) und Uhrzeit der Messung02:45:0011.50 °C
Errechneter Absolutwert der Temperaturschwankungen zwischen Tmin und Tmax des Tages8.10 K
Errechnete Tagesmitteltemperatur14.67500 °C
Gesamt - Niederschlag des Tages (in flüssiger Form)6.22 Liter / m²
Luftdruck (Maximum / Höchstwert) und Zeitpunkt der Messung23:45:00 Uhr1015.80 hPa
Luftdruck (Minimum / Tiefstwert) und Zeitpunkt der Messung00:00:00 Uhr1008.50 hPa
Errechneter Absolutwert der Luftdruckschwankungen des Tages7.30 hPa
Höchste gemessene Windgeschwindigkeit und Uhrzeit der Messung15:45:00 Uhr37.44 km/h
Errechnete Windhäufigkeit in Relation zu den Messwerten des Tages15.62500 %
Niedrigste Windkühle (Windchill) und Zeitpunkt der Messung06:45:00 Uhr10.80 °C
Taupunkt (Maximum / Höchstwert) und Uhrzeit der Messung12:30:00 Uhr13.40 °C
Taupunkt (Minimum / Tiefstwert) und Uhrzeit der Messung02:45:0010.60 °C
Anzahl der automatisch eingelesenen Messwerte 96

Detaillierte Wetter- und Klima- Messwerte für den 02.07.2017 in Holzhau im Erzgebirge (630m ü.NN)
ZeitTemperaturLuftdruckRel. LuftfeuchteWindWindrichtungWindchillTaupunktNiederschlag l/m²
23:45:0012.10 °C1015.80 hPa92.00 %7.92 km/hW12.10 °C10.80 °C6.22
23:30:0012.10 °C1015.80 hPa92.00 %10.80 °C6.22
23:15:0012.20 °C1015.70 hPa92.00 %10.90 °C6.22
23:00:0012.30 °C1015.60 hPa92.00 %11.00 °C6.22
22:45:0012.30 °C1015.50 hPa92.00 %11.00 °C6.22
22:30:0012.40 °C1015.30 hPa91.00 %11.00 °C6.22
22:15:0012.50 °C1015.30 hPa91.00 %11.10 °C5.70
22:00:0012.60 °C1015.20 hPa90.00 %11.00 °C5.70
21:45:0012.60 °C1015.20 hPa89.00 %10.80 °C5.70
21:30:0012.90 °C1015.10 hPa88.00 %11.00 °C5.70
21:15:0013.30 °C1015.00 hPa85.00 %10.80 °C5.70
21:00:0013.60 °C1014.90 hPa84.00 %11.00 °C5.70
20:45:0013.80 °C1014.80 hPa83.00 %11.00 °C5.70
20:30:0014.10 °C1014.80 hPa81.00 %10.90 °C5.70
20:15:0014.60 °C1014.90 hPa79.00 %11.00 °C5.70
20:00:0014.80 °C1014.70 hPa77.00 %10.80 °C5.70
19:45:0015.00 °C1014.70 hPa76.00 %10.80 °C5.70
19:30:0015.40 °C1014.60 hPa74.00 %10.80 °C5.70
19:15:0016.00 °C1014.50 hPa71.00 %10.70 °C5.70
19:00:0016.90 °C1014.50 hPa69.00 %11.20 °C5.70
18:45:0017.40 °C1014.40 hPa68.00 %11.40 °C5.70
18:30:0017.50 °C1014.30 hPa67.00 %11.30 °C5.70
18:15:0017.90 °C1014.20 hPa64.00 %11.00 °C5.70
18:00:0018.80 °C1014.20 hPa67.00 %12.50 °C5.70
17:45:0018.50 °C1014.30 hPa66.00 %2.52 km/hNW18.50 °C12.00 °C5.70
17:30:0019.00 °C1014.20 hPa66.00 %12.50 °C5.70
17:15:0018.90 °C1014.20 hPa67.00 %12.60 °C5.70
17:00:0018.90 °C1014.20 hPa66.00 %12.40 °C5.70
16:45:0018.80 °C1014.10 hPa66.00 %12.30 °C5.70
16:30:0018.80 °C1014.10 hPa66.00 %12.30 °C5.70
16:15:0019.10 °C1014.20 hPa65.00 %12.40 °C5.70
16:00:0018.50 °C1014.20 hPa66.00 %5.04 km/hNW18.50 °C12.00 °C5.70
15:45:0018.90 °C1014.20 hPa65.00 %37.44 km/hWSW19.20 °C12.20 °C5.70
15:30:0018.70 °C1014.10 hPa67.00 %12.50 °C5.70
15:15:0018.10 °C1014.20 hPa67.00 %11.90 °C5.70
15:00:0017.50 °C1014.20 hPa72.00 %12.40 °C5.70
14:45:0017.30 °C1014.20 hPa69.00 %11.60 °C5.70
14:30:0016.90 °C1014.20 hPa69.00 %11.20 °C5.70
14:15:0018.40 °C1013.90 hPa67.00 %9.00 km/hNW18.40 °C12.20 °C5.70
14:00:0018.40 °C1014.10 hPa65.00 %11.70 °C5.70
13:45:0019.60 °C1013.90 hPa63.00 %12.40 °C5.70
13:30:0019.40 °C1013.70 hPa68.00 %28.44 km/hWSW20.10 °C13.30 °C5.70
13:15:0019.50 °C1013.80 hPa66.00 %13.00 °C5.70
13:00:0019.00 °C1013.50 hPa67.00 %12.70 °C5.70
12:45:0019.60 °C1013.50 hPa67.00 %13.30 °C5.70
12:30:0019.50 °C1013.80 hPa68.00 %13.40 °C5.70
12:15:0018.90 °C1013.40 hPa69.00 %23.40 km/hW19.60 °C13.10 °C5.70
12:00:0018.40 °C1013.50 hPa69.00 %12.60 °C5.70
11:45:0018.10 °C1013.50 hPa74.00 %13.40 °C5.70
11:30:0017.80 °C1013.70 hPa75.00 %2.52 km/hNW17.80 °C13.30 °C5.70
11:15:0017.30 °C1013.50 hPa78.00 %13.40 °C5.70
11:00:0016.50 °C1013.40 hPa77.00 %12.50 °C5.70
10:45:0016.10 °C1013.40 hPa81.00 %12.80 °C5.70
10:30:0015.80 °C1013.10 hPa81.00 %12.50 °C5.70
10:15:0015.20 °C1013.10 hPa83.00 %12.30 °C5.70
10:00:0015.30 °C1012.70 hPa84.00 %12.60 °C5.70
09:45:0014.70 °C1012.50 hPa85.00 %12.20 °C5.70
09:30:0014.90 °C1012.50 hPa89.00 %3.96 km/hWNW14.90 °C13.10 °C5.70
09:15:0014.20 °C1012.40 hPa91.00 %12.80 °C5.70
09:00:0013.40 °C1012.30 hPa93.00 %15.48 km/hNW13.40 °C12.30 °C5.70
08:45:0012.90 °C1012.20 hPa95.00 %12.10 °C5.70
08:30:0012.40 °C1012.00 hPa95.00 %11.60 °C5.70
08:15:0011.90 °C1011.90 hPa95.00 %11.10 °C5.70
08:00:0011.60 °C1011.80 hPa95.00 %10.80 °C5.70
07:45:0011.60 °C1011.50 hPa95.00 %10.80 °C5.70
07:30:0011.80 °C1011.30 hPa95.00 %11.00 °C5.70
07:15:0011.80 °C1011.30 hPa95.00 %5.04 km/hW11.80 °C11.00 °C5.70
07:00:0011.80 °C1011.20 hPa95.00 %11.00 °C5.70
06:45:0011.80 °C1011.10 hPa95.00 %34.92 km/hWSW10.80 °C11.00 °C5.70
06:30:0011.80 °C1010.80 hPa95.00 %11.00 °C5.70
06:15:0011.80 °C1010.70 hPa95.00 %11.00 °C5.70
06:00:0011.80 °C1010.70 hPa95.00 %11.00 °C5.70
05:45:0011.80 °C1010.30 hPa95.00 %11.00 °C5.70
05:30:0011.80 °C1010.40 hPa95.00 %11.00 °C5.70
05:15:0011.90 °C1010.00 hPa95.00 %11.10 °C5.70
05:00:0011.90 °C1009.90 hPa95.00 %11.10 °C5.70
04:45:0011.90 °C1009.70 hPa95.00 %11.10 °C5.70
04:30:0011.90 °C1009.50 hPa95.00 %11.10 °C5.70
04:15:0011.90 °C1009.40 hPa95.00 %11.10 °C5.70
04:00:0011.90 °C1009.40 hPa94.00 %11.00 °C5.70
03:45:0011.80 °C1009.30 hPa94.00 %7.92 km/hSW11.80 °C10.90 °C5.70
03:30:0011.80 °C1009.30 hPa94.00 %10.90 °C5.18
03:15:0011.60 °C1009.30 hPa94.00 %10.70 °C5.18
03:00:0011.60 °C1009.10 hPa94.00 %10.70 °C5.18
02:45:0011.50 °C1009.00 hPa94.00 %10.60 °C4.15
02:30:0011.60 °C1009.00 hPa94.00 %10.70 °C3.63
02:15:0011.70 °C1009.00 hPa94.00 %10.80 °C3.11
02:00:0011.80 °C1008.80 hPa94.00 %10.90 °C2.59
01:45:0011.90 °C1009.00 hPa94.00 %11.00 °C2.08
01:30:0012.10 °C1008.90 hPa94.00 %18.00 km/hNW12.10 °C11.20 °C1.56
01:15:0012.10 °C1008.80 hPa94.00 %11.20 °C1.04
01:00:0012.10 °C1008.60 hPa93.00 %11.52 km/hNNW12.10 °C11.00 °C0.52
00:45:0012.10 °C1008.60 hPa93.00 %11.00 °C 
00:30:0012.00 °C1008.60 hPa92.00 %10.70 °C 
00:15:0012.00 °C1008.60 hPa92.00 %10.70 °C 
00:00:0012.10 °C1008.50 hPa92.00 %10.80 °C 

Permanenter Link zu dieser Seite: Wetter im Erzgebirge am 02.07.2017
Performance-Info: Die Erstellung der Seite / Statistik(en) / Tabelle(n) erforderte 5 Datenbankserver-Abfrage(n) und dauerte 98 Millisekunden. (Dieser Messwert ist von der Gesamt-Auslastung des Servers abhängig.)
Erzgebirge - Wetter | Erzgebirge - Wetter (Mobilgeräte) | Komplette Klimadatenbank